createdAt,value
2023-04-26T00:01:25.844Z,99014.98
2023-04-26T00:04:29.081Z,99011.83
2023-04-26T00:07:30.909Z,99019.88
2023-04-26T00:10:30.854Z,99018.32
2023-04-26T00:13:31.734Z,99016.58
2023-04-26T00:16:31.816Z,99022.05
2023-04-26T00:19:31.799Z,99026.67
2023-04-26T00:22:31.804Z,99032.14
2023-04-26T00:25:32.833Z,99030.55
2023-04-26T00:28:32.858Z,99030.35
2023-04-26T00:31:32.849Z,99030.16
2023-04-26T00:34:32.862Z,99027.39
2023-04-26T00:37:33.854Z,99029.73
2023-04-26T00:40:33.883Z,99033.30
2023-04-26T00:43:34.919Z,99033.61
2023-04-26T00:46:34.859Z,99033.06
2023-04-26T00:49:36.864Z,99027.71
2023-04-26T00:52:36.870Z,99032.30
2023-04-26T00:55:36.975Z,99037.26
2023-04-26T00:58:36.853Z,99035.34
2023-04-26T01:01:36.895Z,99030.86
2023-04-26T01:04:36.934Z,99029.29
2023-04-26T01:07:37.910Z,99028.08
2023-04-26T01:10:37.920Z,99029.60
2023-04-26T01:13:37.891Z,99026.48
2023-04-26T01:16:38.957Z,99026.29
2023-04-26T01:19:39.961Z,99025.40
2023-04-26T01:22:39.971Z,99021.60
2023-04-26T01:25:39.931Z,99024.34
2023-04-26T01:28:39.927Z,99022.44
2023-04-26T01:31:39.879Z,99015.22
2023-04-26T01:34:40.963Z,99013.33
2023-04-26T01:37:44.915Z,99007.65
2023-04-26T01:40:45.013Z,99011.63
2023-04-26T01:43:45.219Z,99008.73
2023-04-26T01:46:45.099Z,99008.23
2023-04-26T01:49:44.990Z,99007.39
2023-04-26T01:52:46.989Z,99010.16
2023-04-26T01:55:46.950Z,99010.54
2023-04-26T01:58:50.120Z,99009.51
2023-04-26T02:01:52.028Z,99005.05
2023-04-26T02:04:53.033Z,99004.37
2023-04-26T02:07:53.107Z,99004.20
2023-04-26T02:10:52.959Z,99003.89
2023-04-26T02:13:53.008Z,99006.29
2023-04-26T02:16:53.013Z,99001.80
2023-04-26T02:19:54.042Z,99001.77
2023-04-26T02:22:55.018Z,98995.90
2023-04-26T02:25:55.049Z,99005.31
2023-04-26T02:28:56.029Z,98998.42
2023-04-26T02:31:56.168Z,98991.16
2023-04-26T02:34:56.006Z,98992.99
2023-04-26T02:37:56.099Z,98989.02
2023-04-26T02:40:59.029Z,98981.61
2023-04-26T02:43:59.050Z,98983.83
2023-04-26T02:46:59.036Z,98979.19
2023-04-26T02:49:59.079Z,98974.07
2023-04-26T02:52:59.094Z,98978.07
2023-04-26T02:56:00.044Z,98984.13
2023-04-26T02:59:00.339Z,98983.46
2023-04-26T03:02:00.145Z,98981.55
2023-04-26T03:05:00.084Z,98976.58
2023-04-26T03:08:00.147Z,98976.39
2023-04-26T03:11:00.112Z,98975.73
2023-04-26T03:14:02.099Z,98973.48
2023-04-26T03:17:02.214Z,98977.95
2023-04-26T03:20:02.874Z,98983.44
2023-04-26T03:23:03.122Z,98984.48
2023-04-26T03:26:03.186Z,98985.85
2023-04-26T03:29:03.134Z,98983.45
2023-04-26T03:32:03.155Z,98985.89
2023-04-26T03:35:03.114Z,98982.79
2023-04-26T03:38:03.180Z,98979.17
2023-04-26T03:41:03.172Z,98977.64
2023-04-26T03:44:10.202Z,98974.75
2023-04-26T03:47:11.149Z,98977.35
2023-04-26T03:50:11.219Z,98972.73
2023-04-26T03:53:14.378Z,98972.03
2023-04-26T03:56:14.196Z,98972.05
2023-04-26T03:59:16.202Z,98970.18
2023-04-26T04:02:16.216Z,98969.17
2023-04-26T04:05:16.294Z,98965.59
2023-04-26T04:08:17.197Z,98964.91
2023-04-26T04:11:18.181Z,98959.75
2023-04-26T04:14:18.230Z,98964.94
2023-04-26T04:17:18.188Z,98958.77
2023-04-26T04:20:18.207Z,98961.55
2023-04-26T04:23:20.241Z,98962.08
2023-04-26T04:26:21.234Z,98972.75
2023-04-26T04:29:22.266Z,98967.95
2023-04-26T04:32:23.258Z,98967.62
2023-04-26T04:35:23.298Z,98963.30
2023-04-26T04:38:26.498Z,98957.62
2023-04-26T04:41:28.245Z,98950.73
2023-04-26T04:44:30.249Z,98950.73
2023-04-26T04:47:30.382Z,98952.13
2023-04-26T04:50:30.605Z,98955.40
2023-04-26T04:53:31.353Z,98962.44
2023-04-26T04:56:32.268Z,98960.69
2023-04-26T04:59:32.247Z,98970.52
2023-04-26T05:02:32.398Z,98971.88
2023-04-26T05:05:32.242Z,98969.92
2023-04-26T05:08:34.357Z,98975.91
2023-04-26T05:11:35.356Z,98975.42
2023-04-26T05:14:36.300Z,98977.88
2023-04-26T05:17:38.416Z,98975.89
2023-04-26T05:20:47.300Z,98983.70
2023-04-26T05:23:48.317Z,98973.05
2023-04-26T05:26:49.357Z,98982.55
2023-04-26T05:30:14.381Z,98980.20
2023-04-26T05:33:13.434Z,98977.86
2023-04-26T05:36:22.417Z,98986.55
2023-04-26T05:39:22.558Z,98990.20
2023-04-26T05:42:23.349Z,98979.73
2023-04-26T05:45:23.439Z,98988.55
2023-04-26T05:48:23.341Z,98981.83
2023-04-26T05:51:23.504Z,98986.98
2023-04-26T05:54:23.405Z,98985.63
2023-04-26T05:57:24.368Z,98986.52
2023-04-26T06:00:26.421Z,98985.83
2023-04-26T06:03:26.639Z,98992.84
2023-04-26T06:06:27.405Z,98992.33
2023-04-26T06:09:27.419Z,98985.83
2023-04-26T06:12:27.465Z,98987.42
2023-04-26T06:15:27.451Z,98986.29
2023-04-26T06:18:27.455Z,98977.73
2023-04-26T06:21:29.477Z,98971.59
2023-04-26T06:24:29.398Z,98975.98
2023-04-26T06:27:29.415Z,98977.41
2023-04-26T06:30:29.502Z,98972.59
2023-04-26T06:33:29.500Z,98971.73
2023-04-26T06:36:29.489Z,98977.05
2023-04-26T06:39:29.460Z,98986.40
2023-04-26T06:42:29.461Z,98988.30
2023-04-26T06:45:52.734Z,98990.71
2023-04-26T06:48:53.519Z,98991.73
2023-04-26T06:51:53.504Z,98995.36
2023-04-26T06:54:57.003Z,98995.02
2023-04-26T06:57:57.546Z,98995.88
2023-04-26T07:00:57.506Z,98995.88
2023-04-26T07:03:57.945Z,98990.54
2023-04-26T07:06:58.492Z,98991.92
2023-04-26T07:09:58.537Z,98997.95
2023-04-26T07:13:00.571Z,98996.58
2023-04-26T07:16:01.634Z,98989.16
2023-04-26T07:19:04.526Z,98990.54
2023-04-26T07:22:04.519Z,98973.25
2023-04-26T07:25:04.599Z,98968.00
2023-04-26T07:28:05.626Z,98974.17
2023-04-26T07:31:07.844Z,98971.48
2023-04-26T07:34:08.573Z,98966.05
2023-04-26T07:37:08.756Z,98969.56
2023-04-26T07:40:08.547Z,98968.45
2023-04-26T07:43:08.615Z,98972.85
2023-04-26T07:46:08.611Z,98976.44
2023-04-26T07:49:08.623Z,98973.80
2023-04-26T07:52:08.553Z,98966.09
2023-04-26T07:55:08.556Z,98966.61
2023-04-26T07:58:08.596Z,98966.06
2023-04-26T08:01:10.614Z,98970.33
2023-04-26T08:04:11.012Z,98968.92
2023-04-26T08:07:11.572Z,98976.27
2023-04-26T08:10:11.605Z,98978.63
2023-04-26T08:13:11.643Z,98984.60
2023-04-26T08:16:12.717Z,98981.24
2023-04-26T08:19:12.611Z,98997.42
2023-04-26T08:22:12.643Z,99030.34
2023-04-26T08:25:12.708Z,99000.46
2023-04-26T08:28:14.674Z,99004.52
2023-04-26T08:31:09.507Z,98997.33
2023-04-26T08:34:09.670Z,99004.57
2023-04-26T08:37:09.730Z,99006.88
2023-04-26T08:40:09.666Z,99014.52
2023-04-26T08:43:09.721Z,99005.91
2023-04-26T08:46:02.775Z,99011.09
2023-04-26T08:49:02.788Z,99016.41
2023-04-26T08:52:02.700Z,99004.30
2023-04-26T08:55:02.734Z,99004.31
2023-04-26T08:58:02.762Z,98997.89
2023-04-26T09:01:02.668Z,99001.55
2023-04-26T09:04:02.874Z,98985.14
2023-04-26T09:07:02.694Z,98982.55
2023-04-26T09:10:03.750Z,98990.87
2023-04-26T09:13:08.684Z,99000.39
2023-04-26T09:16:08.857Z,98991.96
2023-04-26T09:19:08.726Z,98992.05
2023-04-26T09:22:09.946Z,98983.79
2023-04-26T09:25:09.780Z,98981.41
2023-04-26T09:28:09.855Z,98976.09
2023-04-26T09:31:09.851Z,98981.16
2023-04-26T09:34:12.826Z,99041.44
2023-04-26T09:37:13.836Z,99030.52
2023-04-26T09:40:14.783Z,99034.35
2023-04-26T09:43:15.907Z,99041.56
2023-04-26T09:46:15.755Z,99025.50
2023-04-26T09:49:15.781Z,99015.67
2023-04-26T09:52:15.793Z,99021.66
2023-04-26T09:55:31.178Z,99013.83
2023-04-26T09:58:35.969Z,99028.67
2023-04-26T10:01:36.876Z,99034.27
2023-04-26T10:04:36.949Z,99032.90
2023-04-26T10:07:36.880Z,99040.11
2023-04-26T10:10:36.807Z,99032.98
2023-04-26T10:13:36.818Z,99040.60
2023-04-26T10:16:36.915Z,99024.47
2023-04-26T10:19:36.890Z,99037.64
2023-04-26T10:22:36.843Z,99052.02
2023-04-26T10:25:36.797Z,99055.65
2023-04-26T10:29:01.713Z,99032.98
2023-04-26T10:32:15.877Z,99027.52
2023-04-26T10:35:24.889Z,99019.33
2023-04-26T10:38:24.816Z,99036.89
2023-04-26T10:41:41.914Z,99040.00
2023-04-26T10:44:51.912Z,99030.02
2023-04-26T10:47:52.922Z,99025.41
2023-04-26T10:51:11.896Z,99013.41
2023-04-26T10:54:11.935Z,99022.45
2023-04-26T10:57:11.907Z,99026.74
2023-04-26T11:00:20.991Z,99029.63
2023-04-26T11:03:20.985Z,99022.91
2023-04-26T11:06:21.899Z,99037.45
2023-04-26T11:09:45.929Z,99033.38
2023-04-26T11:12:45.992Z,99027.09
2023-04-26T11:15:45.971Z,99029.37
2023-04-26T11:18:45.973Z,99023.27
2023-04-26T11:21:47.430Z,99024.96
2023-04-26T11:24:48.050Z,99028.77
2023-04-26T11:27:49.015Z,99037.63
2023-04-26T11:30:48.982Z,99036.55
2023-04-26T11:33:50.815Z,99037.75
2023-04-26T11:36:51.006Z,99036.92
2023-04-26T11:39:44.101Z,99062.47
2023-04-26T11:42:43.996Z,99053.30
2023-04-26T11:45:44.003Z,99030.42
2023-04-26T11:48:45.103Z,99044.78
2023-04-26T11:51:45.634Z,99033.05
2023-04-26T11:54:46.045Z,99034.07
2023-04-26T11:57:46.031Z,99030.16
2023-04-26T12:00:46.079Z,99024.84
2023-04-26T12:03:46.249Z,99025.60
2023-04-26T12:06:53.998Z,99021.13
2023-04-26T12:09:55.090Z,99019.30
2023-04-26T12:13:04.047Z,99021.16
2023-04-26T12:16:07.292Z,99028.45
2023-04-26T12:19:13.061Z,99025.19
2023-04-26T12:22:13.030Z,99025.27
2023-04-26T12:25:19.111Z,99025.95
2023-04-26T12:28:20.093Z,99026.47
2023-04-26T12:31:20.132Z,99035.01
2023-04-26T12:34:20.047Z,99037.36
2023-04-26T12:37:21.050Z,99037.34
2023-04-26T12:40:22.090Z,99042.59
2023-04-26T12:43:23.077Z,99043.35
2023-04-26T12:46:23.124Z,99050.02
2023-04-26T12:49:23.132Z,99059.64
2023-04-26T12:52:23.096Z,99051.58
2023-04-26T12:55:26.062Z,99049.22
2023-04-26T12:58:26.108Z,99055.48
2023-04-26T13:01:26.125Z,99054.84
2023-04-26T13:04:26.305Z,99049.34
2023-04-26T13:07:27.181Z,99051.73
2023-04-26T13:10:27.192Z,99052.95
2023-04-26T13:13:39.898Z,99043.11
2023-04-26T13:16:45.160Z,99048.99
2023-04-26T13:19:45.155Z,99052.10
2023-04-26T13:22:48.172Z,99048.13
2023-04-26T13:25:49.178Z,99047.27
2023-04-26T13:28:49.184Z,99058.14
2023-04-26T13:31:49.240Z,99053.83
2023-04-26T13:34:51.271Z,99049.16
2023-04-26T13:37:51.244Z,99046.90
2023-04-26T13:40:53.114Z,99044.32
2023-04-26T13:43:53.248Z,99041.20
2023-04-26T13:46:55.204Z,99038.08
2023-04-26T13:49:58.179Z,99037.38
2023-04-26T13:52:52.450Z,99034.09
2023-04-26T13:55:52.237Z,99038.93
2023-04-26T13:58:46.334Z,99045.52
2023-04-26T14:01:48.291Z,99052.95
2023-04-26T14:04:49.559Z,99054.02
2023-04-26T14:07:53.546Z,99056.27
2023-04-26T14:10:55.244Z,99056.79
2023-04-26T14:13:56.298Z,99049.55
2023-04-26T14:16:56.255Z,99053.16
2023-04-26T14:19:56.227Z,99060.08
2023-04-26T14:22:56.291Z,99056.45
2023-04-26T14:25:56.234Z,99056.61
2023-04-26T14:28:57.432Z,99059.38
2023-04-26T14:31:58.310Z,99061.63
2023-04-26T14:34:59.319Z,99063.17
2023-04-26T14:38:00.281Z,99069.21
2023-04-26T14:41:00.307Z,99061.63
2023-04-26T14:44:00.356Z,99063.88
2023-04-26T14:47:00.323Z,99069.55
2023-04-26T14:50:00.327Z,99070.93
2023-04-26T14:53:00.331Z,99070.93
2023-04-26T14:56:00.331Z,99068.86
2023-04-26T14:59:00.450Z,99070.75
2023-04-26T15:02:01.434Z,99071.96
2023-04-26T15:05:01.417Z,99065.21
2023-04-26T15:08:02.446Z,99067.11
2023-04-26T15:11:02.317Z,99065.90
2023-04-26T15:14:03.365Z,99066.59
2023-04-26T15:17:03.340Z,99060.55
2023-04-26T15:20:04.396Z,99066.24
2023-04-26T15:23:04.352Z,99061.77
2023-04-26T15:26:04.431Z,99064.17
2023-04-26T15:29:05.523Z,99061.91
2023-04-26T15:32:05.408Z,99059.35
2023-04-26T15:35:05.424Z,99055.55
2023-04-26T15:38:05.621Z,99046.77
2023-04-26T15:41:05.435Z,99047.27
2023-04-26T15:44:08.401Z,99041.77
2023-04-26T15:47:08.411Z,99042.45
2023-04-26T15:50:09.420Z,99043.15
2023-04-26T15:53:09.508Z,99044.34
2023-04-26T15:56:09.453Z,99040.02
2023-04-26T15:59:11.492Z,99042.29
2023-04-26T16:02:13.463Z,99046.08
2023-04-26T16:05:14.603Z,99049.52
2023-04-26T16:08:17.659Z,99047.80
2023-04-26T16:11:24.486Z,99050.89
2023-04-26T16:14:24.755Z,99056.23
2023-04-26T16:17:24.461Z,99061.23
2023-04-26T16:20:24.479Z,99061.92
2023-04-26T16:23:24.517Z,99062.09
2023-04-26T16:26:24.521Z,99065.70
2023-04-26T16:29:24.487Z,99066.73
2023-04-26T16:32:24.889Z,99067.78
2023-04-26T16:35:25.515Z,99065.70
2023-04-26T16:38:18.496Z,99062.75
2023-04-26T16:41:18.492Z,99062.60
2023-04-26T16:44:18.512Z,99061.39
2023-04-26T16:47:18.520Z,99063.80
2023-04-26T16:50:19.522Z,99068.64
2023-04-26T16:53:19.651Z,99070.86
2023-04-26T16:56:19.466Z,99064.14
2023-04-26T16:59:19.730Z,99067.08
2023-04-26T17:02:20.920Z,99070.02
2023-04-26T17:05:21.532Z,99067.08
2023-04-26T17:08:21.526Z,99066.73
2023-04-26T17:11:21.564Z,99072.27
2023-04-26T17:14:22.592Z,99069.84
2023-04-26T17:17:23.587Z,99076.05
2023-04-26T17:20:25.794Z,99075.88
2023-04-26T17:23:25.580Z,99081.55
2023-04-26T17:26:28.565Z,99082.94
2023-04-26T17:29:28.603Z,99083.09
2023-04-26T17:32:28.638Z,99086.02
2023-04-26T17:35:28.606Z,99084.13
2023-04-26T17:38:28.594Z,99089.80
2023-04-26T17:41:28.561Z,99088.27
2023-04-26T17:44:28.902Z,99093.59
2023-04-26T17:47:28.648Z,99091.68
2023-04-26T17:50:29.602Z,99095.46
2023-04-26T17:53:29.688Z,99090.95
2023-04-26T17:56:29.814Z,99093.84
2023-04-26T17:59:29.658Z,99094.31
2023-04-26T18:02:29.755Z,99098.94
2023-04-26T18:05:30.593Z,99097.02
2023-04-26T18:08:31.628Z,99103.03
2023-04-26T18:11:31.718Z,99106.45
2023-04-26T18:14:31.600Z,99110.23
2023-04-26T18:17:31.800Z,99111.23
2023-04-26T18:20:31.627Z,99115.02
2023-04-26T18:23:31.840Z,99116.04
2023-04-26T18:26:31.658Z,99118.95
2023-04-26T18:29:31.688Z,99123.75
2023-04-26T18:32:31.768Z,99120.81
2023-04-26T18:35:31.709Z,99125.13
2023-04-26T18:38:31.660Z,99128.88
2023-04-26T18:41:31.679Z,99129.02
2023-04-26T18:44:33.746Z,99126.77
2023-04-26T18:47:33.804Z,99130.90
2023-04-26T18:50:33.761Z,99133.29
2023-04-26T18:53:34.773Z,99132.77
2023-04-26T18:56:34.729Z,99133.96
2023-04-26T18:59:34.735Z,99129.49
2023-04-26T19:02:34.992Z,99129.48
2023-04-26T19:05:35.797Z,99127.92
2023-04-26T19:08:35.849Z,99126.88
2023-04-26T19:11:35.759Z,99127.77
2023-04-26T19:14:35.780Z,99124.16
2023-04-26T19:17:35.826Z,99122.79
2023-04-26T19:20:36.825Z,99124.20
2023-04-26T19:23:36.772Z,99127.52
2023-04-26T19:26:36.766Z,99124.61
2023-04-26T19:29:36.847Z,99122.06
2023-04-26T19:32:36.808Z,99127.42
2023-04-26T19:35:36.840Z,99129.17
2023-04-26T19:38:36.768Z,99144.70
2023-04-26T19:41:30.023Z,99146.62
2023-04-26T19:44:29.869Z,99136.98
2023-04-26T19:47:29.866Z,99129.58
2023-04-26T19:50:29.768Z,99125.10
2023-04-26T19:53:29.861Z,99121.83
2023-04-26T19:56:30.997Z,99123.55
2023-04-26T19:59:30.981Z,99116.64
2023-04-26T20:02:31.368Z,99118.53
2023-04-26T20:05:31.883Z,99115.42
2023-04-26T20:08:31.956Z,99120.41
2023-04-26T20:11:31.820Z,99117.83
2023-04-26T20:14:31.882Z,99118.36
2023-04-26T20:17:32.052Z,99112.67
2023-04-26T20:20:31.843Z,99109.39
2023-04-26T20:23:31.904Z,99103.89
2023-04-26T20:26:31.860Z,99110.44
2023-04-26T20:29:31.904Z,99109.39
2023-04-26T20:32:31.976Z,99113.70
2023-04-26T20:35:31.870Z,99120.08
2023-04-26T20:38:31.885Z,99115.77
2023-04-26T20:41:31.883Z,99113.19
2023-04-26T20:44:32.007Z,99113.86
2023-04-26T20:47:31.988Z,99114.89
2023-04-26T20:50:31.991Z,99120.57
2023-04-26T20:53:31.927Z,99124.02
2023-04-26T20:56:31.912Z,99125.74
2023-04-26T20:59:31.983Z,99126.10
2023-04-26T21:02:31.971Z,99130.23
2023-04-26T21:05:31.971Z,99127.67
2023-04-26T21:08:31.948Z,99127.68
2023-04-26T21:11:31.945Z,99126.98
2023-04-26T21:14:31.942Z,99131.64
2023-04-26T21:17:32.034Z,99134.58
2023-04-26T21:20:31.964Z,99140.94
2023-04-26T21:23:31.998Z,99143.15
2023-04-26T21:26:32.009Z,99145.90
2023-04-26T21:29:32.003Z,99149.36
2023-04-26T21:32:32.008Z,99150.56
2023-04-26T21:35:31.995Z,99150.37
2023-04-26T21:38:32.500Z,99150.05
2023-04-26T21:41:34.168Z,99147.81
2023-04-26T21:44:34.070Z,99149.38
2023-04-26T21:47:36.080Z,99149.82
2023-04-26T21:50:38.067Z,99160.57
2023-04-26T21:53:38.050Z,99161.98
2023-04-26T21:56:38.056Z,99169.45
2023-04-26T21:59:38.073Z,99171.73
2023-04-26T22:02:38.370Z,99171.30
2023-04-26T22:05:39.068Z,99178.42
2023-04-26T22:08:40.023Z,99184.35
2023-04-26T22:11:41.155Z,99184.77
2023-04-26T22:14:41.072Z,99187.96
2023-04-26T22:17:41.174Z,99189.42
2023-04-26T22:20:41.035Z,99192.23
2023-04-26T22:23:41.118Z,99192.31
2023-04-26T22:26:41.086Z,99200.27
2023-04-26T22:29:42.117Z,99205.11
2023-04-26T22:32:42.105Z,99210.20
2023-04-26T22:35:42.141Z,99215.82
2023-04-26T22:38:43.134Z,99220.95
2023-04-26T22:41:43.176Z,99228.50
2023-04-26T22:44:44.108Z,99227.44
2023-04-26T22:47:44.209Z,99218.20
2023-04-26T22:50:44.135Z,99221.70
2023-04-26T22:53:44.321Z,99219.34
2023-04-26T22:56:46.121Z,99231.75
2023-04-26T22:59:48.347Z,99227.77
2023-04-26T23:02:49.450Z,99226.76
2023-04-26T23:05:50.183Z,99233.82
2023-04-26T23:08:51.181Z,99236.50
2023-04-26T23:11:52.149Z,99228.46
2023-04-26T23:14:54.227Z,99229.48
2023-04-26T23:17:56.203Z,99233.45
2023-04-26T23:20:56.231Z,99233.48
2023-04-26T23:23:56.217Z,99233.53
2023-04-26T23:26:56.176Z,99230.09
2023-04-26T23:29:56.164Z,99232.94
2023-04-26T23:32:56.235Z,99235.47
2023-04-26T23:35:58.234Z,99232.20
2023-04-26T23:38:58.162Z,99237.58
2023-04-26T23:42:02.441Z,99236.46
2023-04-26T23:45:02.197Z,99244.95
2023-04-26T23:48:02.320Z,99236.20
2023-04-26T23:51:02.373Z,99232.05
2023-04-26T23:54:03.231Z,99237.55
2023-04-26T23:57:03.259Z,99239.66
